createdAt,value
2022-11-01T00:02:22.877Z,2.15
2022-11-01T00:12:31.373Z,2.28
2022-11-01T00:17:36.278Z,1.63
2022-11-01T00:27:42.969Z,2.78
2022-11-01T00:32:47.627Z,3.03
2022-11-01T00:37:50.932Z,2.78
2022-11-01T00:42:54.421Z,2.58
2022-11-01T00:47:59.818Z,1.90
2022-11-01T00:53:03.486Z,2.67
2022-11-01T00:58:06.913Z,2.85
2022-11-01T01:03:11.897Z,1.92
2022-11-01T01:08:15.209Z,2.58
2022-11-01T01:13:18.906Z,3.20
2022-11-01T01:18:23.833Z,1.65
2022-11-01T01:23:27.275Z,1.67
2022-11-01T01:28:30.580Z,3.03
2022-11-01T01:33:35.513Z,3.85
2022-11-01T01:43:43.466Z,3.47
2022-11-01T01:48:52.826Z,3.15
2022-11-01T01:53:58.632Z,2.30
2022-11-01T01:59:05.738Z,2.35
2022-11-01T02:04:17.519Z,1.88
2022-11-01T02:09:21.860Z,3.15
2022-11-01T02:14:27.101Z,3.50
2022-11-01T02:20:15.257Z,2.85
2022-11-01T02:25:46.448Z,2.97
2022-11-01T02:31:04.797Z,1.92
2022-11-01T02:36:16.944Z,1.80
2022-11-01T02:41:25.059Z,3.67
2022-11-01T02:46:49.007Z,2.53
2022-11-01T02:51:55.291Z,3.92
2022-11-01T02:57:01.161Z,4.05
2022-11-01T03:02:09.795Z,2.20
2022-11-01T03:07:17.014Z,4.72
2022-11-01T03:12:26.635Z,3.78
2022-11-01T03:17:34.509Z,2.92
2022-11-01T03:22:44.545Z,3.88
2022-11-01T03:27:49.027Z,6.75
2022-11-01T03:32:56.324Z,4.20
2022-11-01T03:38:07.086Z,5.40
2022-11-01T03:43:15.286Z,5.32
2022-11-01T03:48:18.767Z,3.08
2022-11-01T03:53:24.016Z,2.85
2022-11-01T03:58:42.068Z,4.13
2022-11-01T04:03:46.394Z,5.32
2022-11-01T04:08:51.302Z,2.78
2022-11-01T04:14:14.732Z,3.20
2022-11-01T04:19:35.714Z,5.13
2022-11-01T04:24:40.645Z,3.95
2022-11-01T04:34:47.437Z,2.95
2022-11-01T04:39:52.213Z,4.22
2022-11-01T04:44:55.540Z,2.78
2022-11-01T04:49:59.172Z,2.92
2022-11-01T04:55:04.033Z,2.90
2022-11-01T05:00:11.452Z,2.63
2022-11-01T05:05:15.409Z,5.57
2022-11-01T05:10:20.304Z,4.27
2022-11-01T05:20:26.881Z,3.15
2022-11-01T05:25:34.074Z,4.13
2022-11-01T05:30:40.738Z,3.08
2022-11-01T05:35:44.359Z,2.88
2022-11-01T05:40:49.341Z,2.50
2022-11-01T05:45:52.908Z,5.35
2022-11-01T05:50:56.346Z,4.05
2022-11-01T05:56:01.122Z,5.95
2022-11-01T06:01:07.585Z,3.40
2022-11-01T06:06:12.211Z,3.42
2022-11-01T06:11:17.213Z,5.22
2022-11-01T06:16:20.589Z,2.80
2022-11-01T06:21:27.613Z,2.72
2022-11-01T06:26:34.843Z,3.35
2022-11-01T06:31:38.160Z,2.33
2022-11-01T06:36:41.800Z,4.82
2022-11-01T06:41:46.730Z,6.18
2022-11-01T06:51:53.655Z,2.90
2022-11-01T06:56:59.075Z,3.22
2022-11-01T07:02:02.897Z,4.30
2022-11-01T07:07:06.451Z,3.17
2022-11-01T07:12:11.286Z,2.92
2022-11-01T07:22:18.076Z,4.60
2022-11-01T07:27:22.999Z,9.05
2022-11-01T07:37:31.153Z,5.85
2022-11-01T07:47:45.369Z,3.88
2022-11-01T07:52:48.734Z,6.90
2022-11-01T07:57:53.403Z,3.50
2022-11-01T08:03:02.327Z,3.05
2022-11-01T08:08:06.873Z,4.35
2022-11-01T08:13:17.043Z,3.40
2022-11-01T08:18:22.741Z,4.22
2022-11-01T08:23:26.090Z,7.50
2022-11-01T08:28:30.932Z,2.30
2022-11-01T08:38:37.719Z,2.58
2022-11-01T08:43:42.587Z,3.00
2022-11-01T08:48:48.399Z,2.85
2022-11-01T08:53:51.962Z,3.80
2022-11-01T08:58:58.064Z,5.10
2022-11-01T09:04:01.750Z,4.45
2022-11-01T09:09:05.680Z,7.30
2022-11-01T09:14:10.557Z,3.38
2022-11-01T09:24:18.333Z,3.72
2022-11-01T09:29:23.151Z,3.33
2022-11-01T09:34:29.959Z,4.93
2022-11-01T09:39:33.476Z,5.32
2022-11-01T09:44:42.722Z,3.30
2022-11-01T09:49:49.475Z,6.53
2022-11-01T09:54:53.375Z,3.38
2022-11-01T10:00:07.092Z,3.73
2022-11-01T10:05:43.344Z,3.08
2022-11-01T10:10:53.959Z,4.65
2022-11-01T10:16:06.399Z,4.03
2022-11-01T10:21:16.190Z,2.78
2022-11-01T10:26:23.170Z,3.42
2022-11-01T10:31:30.027Z,3.33
2022-11-01T10:41:50.195Z,3.25
2022-11-01T10:46:55.938Z,4.25
2022-11-01T10:52:06.711Z,4.15
2022-11-01T10:57:15.239Z,2.97
2022-11-01T11:02:27.980Z,2.80
2022-11-01T11:07:32.806Z,2.92
2022-11-01T11:12:37.574Z,8.73
2022-11-01T11:17:45.858Z,4.55
2022-11-01T11:22:49.379Z,4.60
2022-11-01T11:27:54.414Z,3.72
2022-11-01T11:33:00.140Z,4.40
2022-11-01T11:38:05.915Z,6.13
2022-11-01T11:43:31.977Z,4.72
2022-11-01T11:48:48.288Z,4.72
2022-11-01T11:54:11.475Z,4.03
2022-11-01T11:59:23.562Z,5.03
2022-11-01T12:04:33.315Z,7.53
2022-11-01T12:09:44.605Z,4.80
2022-11-01T12:14:48.191Z,4.50
2022-11-01T12:20:00.242Z,6.30
2022-11-01T12:25:08.537Z,8.00
2022-11-01T12:30:18.659Z,5.13
2022-11-01T12:35:36.051Z,6.93
2022-11-01T12:40:41.283Z,3.92
2022-11-01T12:45:51.496Z,11.55
2022-11-01T12:50:59.809Z,6.32
2022-11-01T12:56:03.664Z,7.97
2022-11-01T13:01:21.526Z,3.75
2022-11-01T13:06:49.949Z,5.70
2022-11-01T13:12:01.139Z,5.80
2022-11-01T13:17:14.500Z,5.20
2022-11-01T13:22:26.533Z,3.03
2022-11-01T13:27:38.140Z,4.68
2022-11-01T13:32:50.345Z,3.72
2022-11-01T13:38:01.062Z,3.67
2022-11-01T13:43:11.919Z,6.93
2022-11-01T13:48:29.048Z,4.75
2022-11-01T13:53:38.079Z,4.47
2022-11-01T13:58:42.454Z,5.38
2022-11-01T14:03:49.823Z,5.65
2022-11-01T14:09:29.850Z,5.80
2022-11-01T14:14:53.406Z,4.50
2022-11-01T14:20:29.867Z,5.20
2022-11-01T14:25:36.498Z,6.88
2022-11-01T14:30:43.597Z,5.93
2022-11-01T14:35:51.910Z,3.78
2022-11-01T14:40:58.936Z,8.27
2022-11-01T14:46:05.044Z,5.40
2022-11-01T14:51:17.809Z,7.32
2022-11-01T14:56:24.199Z,8.00
2022-11-01T15:01:27.784Z,9.27
2022-11-01T15:06:32.206Z,6.18
2022-11-01T15:11:37.454Z,8.13
2022-11-01T15:16:44.880Z,17.67
2022-11-01T15:21:50.004Z,13.90
2022-11-01T15:26:55.524Z,10.52
2022-11-01T15:32:01.702Z,8.40
2022-11-01T15:37:12.431Z,4.78
2022-11-01T15:42:18.069Z,10.07
2022-11-01T15:47:24.071Z,11.65
2022-11-01T15:52:31.739Z,11.98
2022-11-01T15:57:42.326Z,11.45
2022-11-01T16:02:49.312Z,10.88
2022-11-01T16:07:53.482Z,9.30
2022-11-01T16:13:01.400Z,8.67
2022-11-01T16:18:17.327Z,7.13
2022-11-01T16:23:28.003Z,11.45
2022-11-01T16:28:40.460Z,6.82
2022-11-01T16:33:45.787Z,9.82
2022-11-01T16:38:51.144Z,10.48
2022-11-01T16:43:58.247Z,7.53
2022-11-01T16:49:05.748Z,7.80
2022-11-01T16:54:10.396Z,11.10
2022-11-01T16:59:26.767Z,11.25
2022-11-01T17:04:30.386Z,7.20
2022-11-01T17:09:35.743Z,7.80
2022-11-01T17:19:57.737Z,9.00
2022-11-01T17:25:01.500Z,10.20
2022-11-01T17:30:07.973Z,10.67
2022-11-01T17:35:12.050Z,9.35
2022-11-01T17:40:20.639Z,11.77
2022-11-01T17:45:30.125Z,7.13
2022-11-01T17:50:33.755Z,7.28
2022-11-01T17:55:37.591Z,10.88
2022-11-01T18:00:44.716Z,9.73
2022-11-01T18:05:48.044Z,10.40
2022-11-01T18:11:04.316Z,7.82
2022-11-01T18:16:23.289Z,7.45
2022-11-01T18:21:33.501Z,9.38
2022-11-01T18:26:36.972Z,12.50
2022-11-01T18:31:45.965Z,7.90
2022-11-01T18:36:54.371Z,12.30
2022-11-01T18:41:57.784Z,11.40
2022-11-01T18:47:09.517Z,15.43
2022-11-01T18:52:17.018Z,12.10
2022-11-01T18:57:24.968Z,9.10
2022-11-01T19:02:31.422Z,11.95
2022-11-01T19:08:04.883Z,12.50
2022-11-01T19:12:59.325Z,9.10
2022-11-01T19:18:13.841Z,9.80
2022-11-01T19:23:20.001Z,12.02
2022-11-01T19:28:27.453Z,11.45
2022-11-01T19:33:37.291Z,13.82
2022-11-01T19:38:45.029Z,11.35
2022-11-01T19:43:49.231Z,15.52
2022-11-01T19:48:54.573Z,9.13
2022-11-01T19:54:00.992Z,9.63
2022-11-01T19:59:05.126Z,9.65
2022-11-01T20:04:27.376Z,13.27
2022-11-01T20:09:35.645Z,10.75
2022-11-01T20:14:38.997Z,9.73
2022-11-01T20:19:45.258Z,10.30
2022-11-01T20:24:48.647Z,12.40
2022-11-01T20:29:52.237Z,11.70
2022-11-01T20:34:58.093Z,10.82
2022-11-01T20:40:01.858Z,11.18
2022-11-01T20:45:07.494Z,12.68
2022-11-01T20:50:17.772Z,16.52
2022-11-01T20:55:21.134Z,13.52
2022-11-01T21:00:24.845Z,15.48
2022-11-01T21:05:31.426Z,11.73
2022-11-01T21:10:36.302Z,12.07
2022-11-01T21:15:40.704Z,12.98
2022-11-01T21:20:47.358Z,12.77
2022-11-01T21:25:51.979Z,12.57
2022-11-01T21:30:55.904Z,11.48
2022-11-01T21:36:00.765Z,12.02
2022-11-01T21:46:17.968Z,14.93
2022-11-01T21:51:22.841Z,9.38
2022-11-01T22:01:31.003Z,13.07
2022-11-01T22:06:35.745Z,13.85
2022-11-01T22:11:39.491Z,14.85
2022-11-01T22:16:43.013Z,11.00
2022-11-01T22:21:47.737Z,9.13
2022-11-01T22:26:51.369Z,10.60
2022-11-01T22:31:54.677Z,9.57
2022-11-01T22:37:00.652Z,11.40
2022-11-01T22:42:04.188Z,9.32
2022-11-01T22:47:07.584Z,8.85
2022-11-01T22:52:21.638Z,7.68
2022-11-01T22:57:29.110Z,8.48
2022-11-01T23:02:34.876Z,8.77
2022-11-01T23:07:43.818Z,5.40
2022-11-01T23:13:05.363Z,6.85
2022-11-01T23:18:19.487Z,8.80
2022-11-01T23:23:25.328Z,5.22
2022-11-01T23:28:29.471Z,7.80
2022-11-01T23:33:36.583Z,7.33
2022-11-01T23:38:45.335Z,7.22
2022-11-01T23:43:49.140Z,10.07
2022-11-01T23:48:58.157Z,8.27
2022-11-01T23:54:03.402Z,9.45
2022-11-01T23:59:07.164Z,6.35
